| time (UTC) | temp C | wind direction | speed KPH | gust KPH | rain 1hr cm | rain 24hr cm | rain mn cm | humidity % | barometer mb |
| 20260506162517 | 14 | 0.0 | 0.0 | 0.18 | 0.48 | 0.48 | 94 | 1009.5 | |
| 20260506161537 | 15 | 0.0 | 0.0 | 0.20 | 0.48 | 0.48 | 94 | 1009.6 | |
| 20260506160517 | 15 | 0.0 | 0.0 | 0.18 | 0.43 | 0.43 | 94 | 1009.7 | |
| 20260506155517 | 15 | 0.0 | 0.0 | 0.15 | 0.38 | 0.38 | 94 | 1010.0 | |
| 20260506154517 | 15 | 0.0 | 0.0 | 0.13 | 0.33 | 0.33 | 94 | 1010.3 | |
| 20260506153517 | 15 | 0.0 | 0.0 | 0.13 | 0.30 | 0.30 | 93 | 1010.1 | |
| 20260506152517 | 15 | 0.0 | 0.0 | 0.18 | 0.30 | 0.30 | 93 | 1009.9 | |
| 20260506151537 | 15 | 0.0 | 0.0 | 0.18 | 0.28 | 0.28 | 93 | 1010.1 | |
| 20260506150517 | 15 | 0.0 | 0.0 | 0.18 | 0.25 | 0.25 | 93 | 1010.1 | |
| 20260506145517 | 15 | 0.0 | 0.0 | 0.18 | 0.23 | 0.23 | 93 | 1010.3 | |
| 20260506144517 | 15 | 0.0 | 0.0 | 0.15 | 0.20 | 0.20 | 92 | 1010.5 | |
| 20260506143517 | 15 | 0.0 | 0.0 | 0.15 | 0.18 | 0.18 | 92 | 1010.6 | |
| 20260506142517 | 15 | 0.0 | 0.0 | 0.10 | 0.13 | 0.13 | 92 | 1010.7 | |
| 20260506141537 | 15 | 0.0 | 0.0 | 0.08 | 0.10 | 0.10 | 91 | 1010.8 | |
| 20260506140557 | 15 | 0.0 | 0.0 | 0.05 | 0.08 | 0.08 | 90 | 1010.9 | |
| 20260506135517 | 15 | 0.0 | 0.0 | 0.03 | 0.05 | 0.05 | 89 | 1011.0 | |
| 20260506134517 | 15 | 0.0 | 0.0 | 0.05 | 0.05 | 0.05 | 88 | 1011.0 | |
| 20260506133517 | 16 | 0.0 | 0.0 | 0.03 | 0.03 | 0.03 | 88 | 1011.1 | |
| 20260506132517 | 16 | 0.0 | 0.0 | 0.03 | 0.03 | 0.03 | 87 | 1011.2 | |
| 20260506131516 | 15 | 0.0 | 0.0 | 0.03 | 0.03 | 0.03 | 87 | 1010.9 | |
| 20260506130516 | 15 | 0.0 | 0.0 | 0.03 | 0.03 | 0.03 | 87 | 1010.9 | |
| 20260506125517 | 15 | 0.0 | 0.0 | 0.03 | 0.03 | 0.03 | 88 | 1010.7 | |
| 20260506124557 | 15 | 0.0 | 0.0 | 0.00 | 0.00 | 0.00 | 86 | 1010.7 | |
| 20260506123517 | 16 | 0.0 | 0.0 | 0.00 | 0.00 | 0.00 | 85 | 1010.8 | |
| 20260506122517 | 16 | 0.0 | 0.0 | 0.00 | 0.00 | 0.00 | 84 | 1010.9 | |
| 20260506121517 | 16 | 0.0 | 0.0 | 0.00 | 0.00 | 0.00 | 83 | 1011.0 | |
| 20260506120517 | 16 | 0.0 | 0.0 | 0.00 | 0.00 | 0.00 | 82 | 1011.0 | |
| 20260506115516 | 16 | 0.0 | 0.0 | 0.00 | 0.00 | 0.00 | 81 | 1011.0 | |
| 20260506114517 | 16 | 0.0 | 0.0 | 0.00 | 0.00 | 0.00 | 80 | 1011.0 | |
| 20260506113517 | 16 | 0.0 | 0.0 | 0.00 | 0.00 | 0.00 | 80 | 1011.1 | |
| 20260506112517 | 16 | 0.0 | 1.6 | 0.00 | 0.00 | 0.00 | 80 | 1011.2 | |
| 20260506111537 | 16 | 0.0 | 0.0 | 0.00 | 0.00 | 0.00 | 80 | 1011.2 | |
| 20260506110516 | 16 | 0.0 | 0.0 | 0.00 | 0.00 | 0.00 | 80 | 1011.0 | |
| 20260506105516 | 16 | 0.0 | 0.0 | 0.00 | 0.00 | 0.00 | 79 | 1010.8 | |
| 20260506104516 | 16 | 0.0 | 0.0 | 0.00 | 0.00 | 0.00 | 79 | 1011.0 | |
| 20260506103516 | 16 | 0.0 | 0.0 | 0.00 | 0.00 | 0.00 | 79 | 1010.7 | |
| 20260506102516 | 16 | 0.0 | 0.0 | 0.00 | 0.00 | 0.00 | 78 | 1010.8 | |
| 20260506101516 | 16 | 0.0 | 0.0 | 0.00 | 0.00 | 0.00 | 78 | 1010.9 | |
| 20260506100516 | 16 | 0.0 | 0.0 | 0.00 | 0.00 | 0.00 | 77 | 1010.8 | |
| 20260506095516 | 16 | 0.0 | 0.0 | 0.00 | 0.00 | 0.00 | 77 | 1010.9 | |
| 20260506094536 | 16 | 0.0 | 0.0 | 0.00 | 0.00 | 0.00 | 76 | 1011.0 | |
| 20260506093516 | 16 | 0.0 | 0.0 | 0.00 | 0.00 | 0.00 | 76 | 1010.8 | |
| 20260506092536 | 16 | 0.0 | 0.0 | 0.00 | 0.00 | 0.00 | 75 | 1010.8 | |
| 20260506091516 | 16 | 0.0 | 0.0 | 0.00 | 0.00 | 0.00 | 74 | 1010.8 | |
| 20260506090516 | 16 | 0.0 | 0.0 | 0.00 | 0.00 | 0.00 | 74 | 1011.3 | |
| 20260506085516 | 16 | 0.0 | 0.0 | 0.00 | 0.00 | 0.00 | 74 | 1011.3 | |
| 20260506084516 | 16 | 0.0 | 0.0 | 0.00 | 0.00 | 0.00 | 73 | 1011.3 | |
| 20260506083516 | 16 | 0.0 | 0.0 | 0.00 | 0.00 | 0.00 | 73 | 1011.2 | |
| 20260506082516 | 16 | 0.0 | 0.0 | 0.00 | 0.00 | 0.00 | 73 | 1011.3 | |
| 20260506081516 | 16 | 0.0 | 0.0 | 0.00 | 0.00 | 0.00 | 73 | 1011.2 | |
| 20260506080516 | 16 | 0.0 | 0.0 | 0.00 | 0.00 | 0.00 | 72 | 1011.4 | |
| 20260506072516 | 16 | 0.0 | 0.0 | 0.00 | 0.00 | 0.00 | 69 | 1011.6 | |
| 20260506071517 | 17 | 0.0 | 0.0 | 0.00 | 0.00 | 0.00 | 68 | 1011.7 | |
| 20260506070558 | 17 | 0.0 | 0.0 | 0.00 | 0.00 | 0.00 | 67 | 1011.7 | |
| 20260506062516 | 17 | 0.0 | 0.0 | 0.00 | 0.00 | 0.00 | 65 | 1012.2 | |
| 20260506061516 | 17 | 0.0 | 0.0 | 0.00 | 0.00 | 0.00 | 65 | 1012.4 | |
| 20260506060516 | 17 | 0.0 | 0.0 | 0.00 | 0.00 | 0.00 | 65 | 1012.4 | |
| 20260506050516 | 18 | 0.0 | 4.8 | 0.00 | 0.00 | 0.00 | 62 | 1012.7 | |
| 20260506044516 | 18 | 90 | 1.6 | 11.3 | 0.00 | 0.00 | 0.00 | 60 | 1012.6 |
| 20260506043516 | 18 | 0.0 | 4.8 | 0.00 | 0.00 | 0.00 | 59 | 1012.7 | |
| 20260506042516 | 18 | 203 | 1.6 | 9.7 | 0.00 | 0.00 | 0.00 | 59 | 1012.6 |
| 20260506041516 | 18 | 248 | 1.6 | 8.0 | 0.00 | 0.00 | 0.00 | 58 | 1012.6 |
| 20260506040515 | 18 | 0 | 1.6 | 4.8 | 0.00 | 0.00 | 0.00 | 58 | 1012.6 |
| 20260506035517 | 18 | 113 | 1.6 | 4.8 | 0.00 | 0.00 | 0.00 | 58 | 1012.6 |
| 20260506034516 | 18 | 0.0 | 6.4 | 0.00 | 0.00 | 0.00 | 58 | 1012.4 | |
| 20260506033516 | 18 | 293 | 1.6 | 11.3 | 0.00 | 0.00 | 0.00 | 57 | 1012.4 |
| 20260506032516 | 19 | 135 | 1.6 | 8.0 | 0.00 | 0.00 | 0.00 | 57 | 1012.5 |
| 20260506031557 | 18 | 0.0 | 3.2 | 0.00 | 0.00 | 0.00 | 57 | 1012.4 | |
| 20260506030516 | 19 | 0.0 | 3.2 | 0.00 | 0.00 | 0.00 | 56 | 1012.6 | |
| 20260506025516 | 19 | 158 | 1.6 | 8.0 | 0.00 | 0.00 | 0.00 | 55 | 1012.6 |
| 20260506024516 | 19 | 0.0 | 0.0 | 0.00 | 0.00 | 0.00 | 54 | 1012.6 | |
| 20260506023516 | 20 | 0.0 | 1.6 | 0.00 | 0.00 | 0.00 | 54 | 1012.7 | |
| 20260506022516 | 20 | 0.0 | 0.0 | 0.00 | 0.00 | 0.00 | 51 | 1012.6 | |
| 20260506021516 | 20 | 0.0 | 4.8 | 0.00 | 0.00 | 0.00 | 51 | 1012.6 | |
| 20260506020516 | 21 | 0.0 | 9.7 | 0.00 | 0.00 | 0.00 | 50 | 1012.7 | |
| 20260506015516 | 21 | 248 | 1.6 | 4.8 | 0.00 | 0.00 | 0.00 | 49 | 1012.4 |
| 20260506014516 | 21 | 0.0 | 3.2 | 0.00 | 0.00 | 0.00 | 50 | 1012.4 | |
| 20260506013516 | 21 | 270 | 1.6 | 6.4 | 0.00 | 0.00 | 0.00 | 48 | 1012.2 |
| 20260506012516 | 21 | 270 | 1.6 | 9.7 | 0.00 | 0.00 | 0.00 | 48 | 1012.2 |
| 20260506011516 | 21 | 293 | 1.6 | 9.7 | 0.00 | 0.00 | 0.00 | 47 | 1012.0 |
| 20260506010516 | 21 | 0.0 | 4.8 | 0.00 | 0.00 | 0.00 | 47 | 1011.8 | |
| 20260506005516 | 22 | 270 | 1.6 | 4.8 | 0.00 | 0.00 | 0.00 | 46 | 1011.8 |
| 20260506004516 | 21 | 270 | 1.6 | 8.0 | 0.00 | 0.00 | 0.00 | 47 | 1011.7 |
| 20260506003516 | 21 | 0.0 | 0.0 | 0.00 | 0.00 | 0.00 | 47 | 1011.5 | |
| 20260506002516 | 22 | 0.0 | 0.0 | 0.00 | 0.00 | 0.00 | 47 | 1011.4 | |
| 20260506001516 | 22 | 0.0 | 0.0 | 0.00 | 0.00 | 0.00 | 48 | 1011.5 | |
| 20260506000516 | 22 | 0.0 | 0.0 | 0.00 | 0.00 | 0.00 | 47 | 1011.3 | |
| 20260505235516 | 22 | 0.0 | 0.0 | 0.00 | 0.00 | 0.00 | 47 | 1011.2 | |
| 20260505234516 | 22 | 0.0 | 0.0 | 0.00 | 0.00 | 0.00 | 47 | 1011.2 | |
| 20260505233516 | 22 | 0.0 | 0.0 | 0.00 | 0.00 | 0.00 | 46 | 1010.9 | |
| 20260505232516 | 22 | 0.0 | 0.0 | 0.00 | 0.00 | 0.00 | 46 | 1010.9 | |
| 20260505231536 | 22 | 0.0 | 0.0 | 0.00 | 0.00 | 0.00 | 45 | 1010.7 | |
| 20260505230536 | 23 | 0.0 | 0.0 | 0.00 | 0.00 | 0.00 | 45 | 1010.7 | |
| 20260505225516 | 23 | 0.0 | 0.0 | 0.00 | 0.00 | 0.00 | 44 | 1010.6 | |
| 20260505224536 | 23 | 0.0 | 0.0 | 0.00 | 0.00 | 0.00 | 43 | 1010.5 | |
| 20260505223516 | 23 | 0.0 | 0.0 | 0.00 | 0.00 | 0.00 | 43 | 1010.4 | |
| 20260505222516 | 23 | 0.0 | 0.0 | 0.00 | 0.00 | 0.00 | 43 | 1010.3 | |
| 20260505221516 | 23 | 0.0 | 0.0 | 0.00 | 0.00 | 0.00 | 43 | 1010.4 | |
| 20260505220536 | 23 | 0.0 | 0.0 | 0.00 | 0.00 | 0.00 | 42 | 1010.3 | |
| 20260505215516 | 24 | 0.0 | 0.0 | 0.00 | 0.00 | 0.00 | 44 | 1010.4 | |
| 20260505214516 | 24 | 0.0 | 0.0 | 0.00 | 0.00 | 0.00 | 42 | 1010.2 | |
| 20260505213516 | 24 | 0.0 | 0.0 | 0.00 | 0.00 | 0.00 | 40 | 1010.0 | |
| 20260505212516 | 25 | 0.0 | 0.0 | 0.00 | 0.00 | 0.00 | 35 | 1010.0 | |
| 20260505211516 | 25 | 293 | 1.6 | 3.2 | 0.00 | 0.00 | 0.00 | 34 | 1010.0 |
| 20260505210516 | 25 | 293 | 3.2 | 14.5 | 0.00 | 0.00 | 0.00 | 35 | 1010.1 |
| 20260505205536 | 25 | 225 | 4.8 | 16.1 | 0.00 | 0.00 | 0.00 | 33 | 1009.7 |
| 20260505204516 | 26 | 225 | 4.8 | 11.3 | 0.00 | 0.00 | 0.00 | 32 | 1010.1 |
| 20260505203516 | 25 | 248 | 3.2 | 11.3 | 0.00 | 0.00 | 0.00 | 34 | 1009.9 |
| 20260505202516 | 26 | 225 | 3.2 | 11.3 | 0.00 | 0.00 | 0.00 | 32 | 1009.8 |
| 20260505201516 | 26 | 225 | 3.2 | 8.0 | 0.00 | 0.00 | 0.00 | 33 | 1009.7 |
| 20260505200516 | 26 | 248 | 4.8 | 24.1 | 0.00 | 0.00 | 0.00 | 33 | 1009.9 |
| 20260505195515 | 26 | 293 | 4.8 | 12.9 | 0.00 | 0.00 | 0.00 | 32 | 1009.9 |
| 20260505194516 | 25 | 248 | 6.4 | 14.5 | 0.00 | 0.00 | 0.00 | 33 | 1010.0 |
| 20260505193536 | 25 | 293 | 3.2 | 9.7 | 0.00 | 0.00 | 0.00 | 34 | 1010.3 |
| 20260505192516 | 26 | 293 | 4.8 | 20.9 | 0.00 | 0.00 | 0.00 | 33 | 1010.5 |
| 20260505191516 | 26 | 270 | 4.8 | 12.9 | 0.00 | 0.00 | 0.00 | 34 | 1010.5 |
| 20260505190515 | 26 | 203 | 3.2 | 11.3 | 0.00 | 0.00 | 0.00 | 35 | 1010.8 |
| 20260505185515 | 26 | 270 | 4.8 | 12.9 | 0.00 | 0.00 | 0.00 | 34 | 1010.9 |
| 20260505184535 | 26 | 293 | 4.8 | 20.9 | 0.00 | 0.00 | 0.00 | 37 | 1011.0 |
| 20260505183515 | 26 | 270 | 3.2 | 17.7 | 0.00 | 0.00 | 0.00 | 37 | 1011.2 |
| 20260505182515 | 26 | 225 | 6.4 | 19.3 | 0.00 | 0.00 | 0.00 | 36 | 1011.4 |
| 20260505181515 | 26 | 270 | 6.4 | 19.3 | 0.00 | 0.00 | 0.00 | 37 | 1011.3 |
| 20260505180515 | 26 | 270 | 4.8 | 20.9 | 0.00 | 0.00 | 0.00 | 38 | 1011.4 |
| 20260505175515 | 26 | 248 | 4.8 | 16.1 | 0.00 | 0.00 | 0.00 | 39 | 1011.4 |
| 20260505174515 | 26 | 0.0 | 0.0 | 0.00 | 0.00 | 0.00 | 41 | 1011.5 | |
| 20260505173515 | 26 | 0.0 | 0.0 | 0.00 | 0.00 | 0.00 | 41 | 1011.5 | |
| 20260505172515 | 26 | 0.0 | 0.0 | 0.00 | 0.00 | 0.00 | 38 | 1011.5 | |
| 20260505171515 | 26 | 0.0 | 0.0 | 0.00 | 0.00 | 0.00 | 39 | 1011.5 | |
| 20260505170517 | 26 | 0.0 | 0.0 | 0.00 | 0.00 | 0.00 | 41 | 1011.7 | |
| 20260505165517 | 25 | 0.0 | 0.0 | 0.00 | 0.00 | 0.00 | 44 | 1011.8 | |
| 20260505164515 | 25 | 0.0 | 0.0 | 0.00 | 0.00 | 0.00 | 46 | 1011.8 | |
| 20260505163517 | 25 | 0.0 | 0.0 | 0.00 | 0.00 | 0.00 | 45 | 1012.1 |